• Join FlightAware (Why Join?)
  • Login
  • US Flag 
04:40AM EST


 

Airport Tracker/Info


-or-


 

Live Flight TrackerFlight Track Log ✈ CNS33 ✈ 24-Apr-2013 ✈ KPSM - KLCI

Flight Track Log - Related Links

Times and Time Zones

All times are in EDT time to prevent confusion due to time zone crossing. See the CNS33 flight status page for this flight to view local times or setup timezone preferences in your user account.

Time Position Orientation Groundspeed Altitude Reporting Facility
EDT Latitude Longitude Course Direction KTS MPH feet Rate Location/Type
09:16AM 43.0833 -70.8333 324° Northwest 108 124 700  Level KA90
09:17AM 43.1000 -70.8500 324° Northwest 82 94 1,600 1,200 Climbing KA90
09:18AM 43.1167 -70.8667 324° Northwest 120 138 2,500 1,140 Climbing KA90
09:19AM 43.1500 -70.9167 312° West 150 173 3,900 1,200 Climbing KA90
09:20AM 43.1667 -70.9833 289° West 164 189 5,100 1,500 Climbing KA90
09:21AM 43.1833 -71.0333 295° West 150 173 6,900 1,380 Climbing KA90
09:22AM 43.2000 -71.0833 295° West 171 197 7,900 1,020 Climbing KA90
09:23AM 43.2167 -71.1333 295° West 149 171 9,000 480 Climbing KA90
09:24AM 43.2333 -71.2000 289° West 191 220 8,900 -180 Descending KA90
09:25AM 43.2500 -71.2667 289° West 209 241 8,700 -240 Descending KA90
09:26AM 43.2667 -71.3500 285° West 227 261 8,500 -120 Descending KA90
09:27AM 43.3167 -71.4167 316° Northwest 228 262 8,500  Level KA90
09:28AM 43.3500 -71.3500 55° Northeast 233 268 8,500  Level KA90
09:29AM 43.4000 -71.3500 360° North 227 261 8,500  Level KA90
09:30AM 43.4333 -71.4000 313° West 184 212 8,500  Level KA90
09:31AM 43.4500 -71.4500 295° West 152 175 8,500  Level KA90
09:32AM 43.4500 -71.4833 270° West 105 121 8,500  Level KA90
09:33AM 43.4333 -71.5167 235° Southwest 114 131 8,500  Level KA90
09:34AM 43.4333 -71.5500 270° West 105 121 8,600 60 Climbing KA90
09:35AM 43.4333 -71.5833 270° West 127 146 8,700  Climbing KA90
09:36AM 43.4167 -71.6000 216° Southwest 103 119 8,600  Descending KA90
09:37AM 43.3833 -71.6000 180° South 98 113 8,800 180 Climbing KA90
09:38AM 43.3500 -71.6333 216° Southwest 142 163 9,000 120 Climbing KA90
09:39AM 43.3833 -71.6667 324° Northwest 123 142 9,100  Climbing KA90
09:40AM 43.4000 -71.7000 305° West 128 147 9,000 -60 Descending KA90
09:41AM 43.4333 -71.7333 324° Northwest 121 139 9,000 -180 Level KA90
09:42AM 43.4500 -71.7833 295° West 144 166 8,700 -300 Descending KA90
09:43AM 43.4167 -71.8167 216° Southwest 168 193 8,500 -120 Descending KA90
09:44AM 43.3833 -71.7833 144° Southeast 179 206 8,500  Level KA90
09:45AM 43.3833 -71.8000 270° West 176 203 8,500  Level KA90
09:46AM 43.3667 -71.7667 125° Southeast 191 220 8,500  Level KA90